Home > Products > Valid Products > TAF

000
FTUS45 KTWC 251133
TAFOLS
TAF
KOLS 251133Z 2512/2612 VRB06KT P6SM SKC
     FM251400 17009KT P6SM SKC
     FM251600 19014G22KT P6SM SKC
     FM252000 23021G31KT P6SM SKC
     FM260300 24011KT P6SM SCT250
     FM260700 VRB06KT P6SM FEW250=



000
FTUS45 KTWC 251133
TAFTUS
TAF
KTUS 251133Z 2512/2612 15009KT P6SM SKC
     FM251700 22013G22KT P6SM SKC
     FM252100 23022G32KT P6SM SKC
     FM260400 27008KT P6SM FEW250
     FM261000 14006KT P6SM FEW250=



000
FTUS45 KTWC 251133
TAFDUG
TAF
KDUG 251133Z 2512/2612 12008KT P6SM SKC
     FM251500 20014G22KT P6SM SKC
     FM251900 22028G38KT P6SM SKC
     FM260300 24013KT P6SM FEW250
     FM260900 32006KT P6SM FEW250=



000
FTUS45 KTWC 241120
TAFOLS
TAF
KOLS 241120Z 2412/2512 18006KT P6SM SKC
     FM241600 18012G18KT P6SM SKC
     FM241900 22018G28KT P6SM SKC
     FM250200 22011G17KT P6SM SKC
     FM250400 17007KT P6SM SKC=



000
FTUS45 KTWC 241120
TAFTUS
TAF
KTUS 241120Z 2412/2512 14006KT P6SM SKC
     FM241600 21010KT P6SM SKC
     FM242000 24016G24KT P6SM SKC
     FM250200 28009KT P6SM SKC
     FM251000 15007KT P6SM SKC=



000
FTUS45 KTWC 241120
TAFDUG
TAF
KDUG 241120Z 2412/2512 17007KT P6SM SKC
     FM241600 21014G22KT P6SM SKC
     FM241900 23022G30KT P6SM SKC
     FM250200 24012G18KT P6SM SKC
     FM250600 17007KT P6SM SKC=



000
FTUS45 KTWC 232333
TAFOLS
TAF
KOLS 232333Z 2400/2424 22017G26KT P6SM SKC
     FM240200 22010KT P6SM SKC
     FM240500 15006KT P6SM SKC
     FM241600 19012G18KT P6SM SKC
     FM241900 22018G28KT P6SM SKC=



000
FTUS45 KTWC 232333
TAFDUG
TAF
KDUG 232333Z 2400/2424 25020G28KT P6SM SKC
     FM240200 24012KT P6SM SKC
     FM240600 28007KT P6SM SKC
     FM240900 18007KT P6SM SKC
     FM241600 21015G23KT P6SM SKC
     FM241900 23022G30KT P6SM SKC=



000
FTUS45 KTWC 232333
TAFTUS
TAF
KTUS 232333Z 2400/2424 27014G22KT P6SM SKC
     FM240200 27010KT P6SM SKC
     FM240600 23005KT P6SM SKC
     FM241000 15006KT P6SM SKC
     FM241700 21010KT P6SM SKC
     FM242000 23015G24KT P6SM SKC=



000
FTUS45 KTWC 231738
TAFOLS
TAF
KOLS 231738Z 2318/2418 20014G22KT P6SM SKC
     FM232100 23017G25KT P6SM SKC
     FM240200 22010KT P6SM SKC
     FM240500 15006KT P6SM SKC=



000
FTUS45 KTWC 231738
TAFTUS
TAF
KTUS 231738Z 2318/2418 20007KT P6SM SKC
     FM232000 25014G22KT P6SM SKC
     FM240200 26011KT P6SM SKC
     FM240600 23006KT P6SM SKC
     FM241000 15006KT P6SM SKC=



000
FTUS45 KTWC 231738
TAFDUG
TAF
KDUG 231738Z 2318/2418 24014G24KT P6SM SKC
     FM232000 24020G28KT P6SM SKC
     FM240200 24012KT P6SM SKC
     FM240600 28007KT P6SM SKC
     FM240900 18007KT P6SM SKC=



000
FTUS45 KTWC 231127
TAFTUS
TAF
KTUS 231127Z 2312/2412 18006KT P6SM SKC
     FM231900 25014G22KT P6SM SKC
     FM240200 28007KT P6SM SKC
     FM240700 14006KT P6SM SKC=



000
FTUS45 KTWC 231127
TAFOLS
TAF
KOLS 231127Z 2312/2412 VRB03KT P6SM SKC
     FM231700 19012G18KT P6SM SKC
     FM232100 23016G24KT P6SM SKC
     FM240200 22007KT P6SM SKC
     FM240700 12005KT P6SM SKC=



000
FTUS45 KTWC 231127
TAFDUG
TAF
KDUG 231127Z 2312/2412 12005KT P6SM SKC
     FM231700 23018G26KT P6SM SKC
     FM240200 25008KT P6SM SKC
     FM240800 12006KT P6SM SKC=



000
FTUS45 KTWC 230530
TAFDUG
TAF
KDUG 230530Z 2306/2406 26007KT P6SM BKN250
     FM231000 16005KT P6SM SCT250
     FM231700 20013G20KT P6SM SKC
     FM232000 23020G28KT P6SM SKC
     FM240200 24011G17KT P6SM SKC=



000
FTUS45 KTWC 230530
TAFOLS
TAF
KOLS 230530Z 2306/2406 25007KT P6SM BKN250
     FM230800 VRB03KT P6SM SCT250
     FM231800 20013G19KT P6SM SKC
     FM232100 22017G25KT P6SM SKC
     FM240200 22011KT P6SM SKC=



000
FTUS45 KTWC 230530
TAFTUS
TAF
KTUS 230530Z 2306/2406 29007KT P6SM SCT250
     FM231000 15006KT P6SM SCT250
     FM231800 22009KT P6SM SKC
     FM232100 24016G25KT P6SM SKC
     FM240300 28008KT P6SM SKC=



    US Dept of Commerce
    National Oceanic and Atmospheric Administration
    National Weather Service
    1325 East West Highway
    Silver Spring, MD 20910
    Page Author: NWS Internet Services Team
Disclaimer
Information Quality
Credits
Glossary
Privacy Policy
Freedom of Information Act (FOIA)
About Us
Career Opportunities